createdAt,value
2023-08-08T00:01:52.166Z,99054.88
2023-08-08T00:06:55.761Z,99051.38
2023-08-08T00:11:59.145Z,99056.50
2023-08-08T00:17:02.399Z,99052.22
2023-08-08T00:22:05.547Z,99051.38
2023-08-08T00:27:08.830Z,99060.75
2023-08-08T00:32:11.814Z,99056.19
2023-08-08T00:37:14.877Z,99060.97
2023-08-08T00:42:17.607Z,99068.91
2023-08-08T00:47:20.418Z,99061.00
2023-08-08T00:52:24.872Z,99054.09
2023-08-08T00:57:27.740Z,99067.38
2023-08-08T01:02:31.510Z,99072.03
2023-08-08T01:07:46.045Z,99081.81
2023-08-08T01:12:53.546Z,99075.31
2023-08-08T01:17:56.696Z,99083.53
2023-08-08T01:23:24.038Z,99085.38
2023-08-08T01:28:27.598Z,99094.44
2023-08-08T01:33:30.464Z,99086.88
2023-08-08T01:38:35.828Z,99088.31
2023-08-08T01:43:40.304Z,99083.38
2023-08-08T01:48:47.147Z,99096.63
2023-08-08T01:53:51.717Z,99081.91
2023-08-08T01:58:56.395Z,99081.75
2023-08-08T02:03:59.489Z,99077.81
2023-08-08T02:09:04.589Z,99076.97
2023-08-08T02:14:08.045Z,99083.50
2023-08-08T02:19:10.958Z,99085.41
2023-08-08T02:24:14.490Z,99093.50
2023-08-08T02:29:17.512Z,99091.63
2023-08-08T02:34:20.364Z,99093.47
2023-08-08T02:39:24.387Z,99090.06
2023-08-08T02:44:28.117Z,99095.94
2023-08-08T02:49:31.105Z,99100.06
2023-08-08T02:54:35.344Z,99101.03
2023-08-08T02:59:38.800Z,99099.63
2023-08-08T03:04:43.462Z,99104.59
2023-08-08T03:09:46.672Z,99112.91
2023-08-08T03:14:49.462Z,99107.09
2023-08-08T03:19:52.596Z,99114.19
2023-08-08T03:24:55.974Z,99106.53
2023-08-08T03:29:58.769Z,99107.94
2023-08-08T03:35:01.734Z,99109.25
2023-08-08T03:40:06.797Z,99107.69
2023-08-08T03:45:10.171Z,99117.00
2023-08-08T03:50:13.333Z,99113.72
2023-08-08T03:55:16.734Z,99105.72
2023-08-08T04:00:19.574Z,99106.75
2023-08-08T04:05:22.965Z,99116.00
2023-08-08T04:10:25.869Z,99109.09
2023-08-08T04:15:29.544Z,99114.69
2023-08-08T04:20:32.572Z,99116.19
2023-08-08T04:25:35.206Z,99110.75
2023-08-08T04:30:38.391Z,99119.88
2023-08-08T04:35:41.339Z,99118.50
2023-08-08T04:40:44.173Z,99119.88
2023-08-08T04:45:47.001Z,99114.22
2023-08-08T04:50:50.294Z,99122.25
2023-08-08T04:55:53.004Z,99124.56
2023-08-08T05:00:56.578Z,99118.78
2023-08-08T05:06:00.565Z,99121.50
2023-08-08T05:11:03.761Z,99126.50
2023-08-08T05:16:07.748Z,99114.56
2023-08-08T05:21:10.795Z,99123.47
2023-08-08T05:26:16.266Z,99130.19
2023-08-08T05:31:19.097Z,99124.88
2023-08-08T05:36:22.501Z,99140.88
2023-08-08T05:41:25.311Z,99134.91
2023-08-08T05:46:28.058Z,99135.75
2023-08-08T05:51:31.480Z,99125.31
2023-08-08T05:56:38.515Z,99117.19
2023-08-08T06:01:41.479Z,99115.06
2023-08-08T06:06:45.293Z,99129.06
2023-08-08T06:11:48.136Z,99142.66
2023-08-08T06:16:51.459Z,99128.47
2023-08-08T06:21:56.129Z,99126.31
2023-08-08T06:26:59.031Z,99143.34
2023-08-08T06:32:02.006Z,99126.53
2023-08-08T06:37:05.405Z,99131.66
2023-08-08T06:42:09.956Z,99144.38
2023-08-08T06:47:23.824Z,99146.44
2023-08-08T06:52:26.954Z,99153.44
2023-08-08T06:57:33.882Z,99135.31
2023-08-08T07:02:36.856Z,99143.16
2023-08-08T07:07:40.203Z,99146.63
2023-08-08T07:12:43.498Z,99142.84
2023-08-08T07:17:46.472Z,99151.75
2023-08-08T07:22:49.860Z,99152.59
2023-08-08T07:27:52.731Z,99151.41
2023-08-08T07:32:56.080Z,99138.13
2023-08-08T07:37:59.378Z,99142.63
2023-08-08T07:43:02.200Z,99131.78
2023-08-08T07:48:06.595Z,99118.41
2023-08-08T07:53:10.078Z,99141.38
2023-08-08T07:58:12.981Z,99147.09
2023-08-08T08:03:17.076Z,99151.41
2023-08-08T08:08:20.498Z,99146.38
2023-08-08T08:13:23.413Z,99158.34
2023-08-08T08:18:26.341Z,99144.25
2023-08-08T08:23:30.453Z,99148.59
2023-08-08T08:28:33.412Z,99150.81
2023-08-08T08:33:37.232Z,99159.09
2023-08-08T08:38:40.089Z,99159.66
2023-08-08T08:43:42.879Z,99169.47
2023-08-08T08:48:46.967Z,99169.47
2023-08-08T08:53:51.558Z,99165.09
2023-08-08T08:58:54.458Z,99166.19
2023-08-08T09:03:59.650Z,99156.28
2023-08-08T09:09:16.426Z,99167.13
2023-08-08T09:14:22.029Z,99174.88
2023-08-08T09:19:26.692Z,99176.63
2023-08-08T09:24:30.128Z,99166.81
2023-08-08T09:29:33.452Z,99156.16
2023-08-08T09:34:36.673Z,99170.44
2023-08-08T09:39:40.282Z,99180.13
2023-08-08T09:44:44.349Z,99173.69
2023-08-08T09:49:47.371Z,99180.03
2023-08-08T09:54:51.250Z,99173.22
2023-08-08T09:59:54.509Z,99174.91
2023-08-08T10:04:59.861Z,99181.78
2023-08-08T10:10:03.112Z,99178.00
2023-08-08T10:15:11.670Z,99182.28
2023-08-08T10:20:15.189Z,99170.41
2023-08-08T10:25:26.638Z,99173.50
2023-08-08T10:30:29.527Z,99173.19
2023-08-08T10:35:39.498Z,99176.88
2023-08-08T10:40:44.549Z,99170.97
2023-08-08T10:45:54.219Z,99185.34
2023-08-08T10:51:03.421Z,99194.03
2023-08-08T10:56:08.714Z,99196.75
2023-08-08T11:01:13.915Z,99206.63
2023-08-08T11:06:17.878Z,99203.03
2023-08-08T11:11:20.709Z,99199.94
2023-08-08T11:16:24.025Z,99201.63
2023-08-08T11:21:27.964Z,99191.47
2023-08-08T11:26:33.462Z,99205.91
2023-08-08T11:31:37.821Z,99211.53
2023-08-08T11:36:41.258Z,99210.94
2023-08-08T11:41:44.258Z,99220.31
2023-08-08T11:46:51.203Z,99222.16
2023-08-08T11:52:01.651Z,99221.91
2023-08-08T11:57:04.838Z,99217.28
2023-08-08T12:02:07.624Z,99219.47
2023-08-08T12:07:11.589Z,99215.69
2023-08-08T12:17:23.665Z,99233.34
2023-08-08T12:22:26.869Z,99226.44
2023-08-08T12:27:30.153Z,99240.25
2023-08-08T12:32:34.500Z,99241.78
2023-08-08T12:37:39.049Z,99247.59
2023-08-08T12:42:41.968Z,99250.31
2023-08-08T12:47:45.451Z,99251.06
2023-08-08T12:52:48.455Z,99258.06
2023-08-08T12:57:51.169Z,99264.44
2023-08-08T13:02:55.411Z,99266.56
2023-08-08T13:07:58.899Z,99264.16
2023-08-08T13:13:02.380Z,99274.41
2023-08-08T13:18:06.304Z,99274.41
2023-08-08T13:23:09.626Z,99270.66
2023-08-08T13:28:13.333Z,99265.53
2023-08-08T13:33:20.275Z,99275.63
2023-08-08T13:38:25.271Z,99279.13
2023-08-08T13:43:28.631Z,99304.47
2023-08-08T13:48:31.379Z,99295.88
2023-08-08T13:53:35.829Z,99305.59
2023-08-08T13:58:39.186Z,99311.94
2023-08-08T14:03:42.489Z,99316.81
2023-08-08T14:08:47.185Z,99320.88
2023-08-08T14:13:50.286Z,99328.84
2023-08-08T14:18:53.638Z,99335.00
2023-08-08T14:23:58.053Z,99326.16
2023-08-08T14:29:01.419Z,99339.84
2023-08-08T14:34:04.732Z,99338.88
2023-08-08T14:39:08.313Z,99343.00
2023-08-08T14:44:11.287Z,99349.44
2023-08-08T14:49:15.288Z,99347.59
2023-08-08T14:54:18.936Z,99341.84
2023-08-08T14:59:22.652Z,99353.91
2023-08-08T15:04:26.503Z,99365.78
2023-08-08T15:09:30.312Z,99361.94
2023-08-08T15:14:33.145Z,99358.91
2023-08-08T15:19:35.985Z,99359.22
2023-08-08T15:24:39.792Z,99363.59
2023-08-08T15:29:42.871Z,99368.84
2023-08-08T15:34:46.582Z,99361.56
2023-08-08T15:39:49.366Z,99361.00
2023-08-08T15:44:52.716Z,99369.94
2023-08-08T15:49:56.603Z,99369.22
2023-08-08T15:55:00.261Z,99365.06
2023-08-08T16:00:05.202Z,99365.09
2023-08-08T16:05:15.411Z,99365.31
2023-08-08T16:10:18.401Z,99356.16
2023-08-08T16:15:23.089Z,99362.47
2023-08-08T16:20:26.148Z,99361.75
2023-08-08T16:25:29.756Z,99355.00
2023-08-08T16:30:32.617Z,99353.50
2023-08-08T16:35:35.827Z,99360.44
2023-08-08T16:40:38.873Z,99368.28
2023-08-08T16:45:42.148Z,99378.84
2023-08-08T16:50:46.168Z,99376.44
2023-08-08T16:55:49.083Z,99381.00
2023-08-08T17:00:54.843Z,99378.50
2023-08-08T17:05:58.308Z,99377.69
2023-08-08T17:11:01.085Z,99379.44
2023-08-08T17:16:03.928Z,99379.53
2023-08-08T17:21:07.344Z,99378.63
2023-08-08T17:26:10.791Z,99375.31
2023-08-08T17:31:13.536Z,99372.84
2023-08-08T17:36:16.727Z,99381.50
2023-08-08T17:41:19.870Z,99380.66
2023-08-08T17:46:22.648Z,99384.09
2023-08-08T17:51:26.070Z,99380.75
2023-08-08T17:56:28.880Z,99381.69
2023-08-08T18:01:32.064Z,99374.91
2023-08-08T18:06:35.221Z,99383.50
2023-08-08T18:11:41.120Z,99376.69
2023-08-08T18:16:43.884Z,99379.41
2023-08-08T18:21:47.624Z,99382.97
2023-08-08T18:26:50.467Z,99380.56
2023-08-08T18:31:54.010Z,99372.00
2023-08-08T18:36:57.202Z,99374.56
2023-08-08T18:42:00.259Z,99377.09
2023-08-08T18:47:03.363Z,99372.88
2023-08-08T18:52:07.021Z,99378.88
2023-08-08T18:57:09.823Z,99379.44
2023-08-08T19:02:13.397Z,99369.09
2023-08-08T19:07:16.870Z,99369.88
2023-08-08T19:12:22.398Z,99373.41
2023-08-08T19:17:25.392Z,99363.34
2023-08-08T19:22:28.812Z,99365.25
2023-08-08T19:27:32.074Z,99362.69
2023-08-08T19:32:35.045Z,99379.78
2023-08-08T19:37:38.593Z,99378.06
2023-08-08T19:42:41.459Z,99379.97
2023-08-08T19:47:44.239Z,99379.97
2023-08-08T19:52:49.076Z,99381.38
2023-08-08T19:57:51.806Z,99377.72
2023-08-08T20:02:54.878Z,99375.69
2023-08-08T20:07:59.139Z,99375.59
2023-08-08T20:13:04.828Z,99369.63
2023-08-08T20:18:08.225Z,99368.78
2023-08-08T20:23:12.657Z,99372.94
2023-08-08T20:28:15.393Z,99374.47
2023-08-08T20:33:18.844Z,99385.44
2023-08-08T20:38:23.373Z,99381.09
2023-08-08T20:43:26.599Z,99386.28
2023-08-08T20:48:30.802Z,99382.88
2023-08-08T20:53:55.421Z,99384.59
2023-08-08T20:58:58.587Z,99384.78
2023-08-08T21:04:01.347Z,99394.38
2023-08-08T21:09:05.344Z,99390.16
2023-08-08T21:14:08.248Z,99387.72
2023-08-08T21:19:11.069Z,99394.66
2023-08-08T21:24:14.606Z,99388.78
2023-08-08T21:29:17.550Z,99391.22
2023-08-08T21:34:21.068Z,99382.50
2023-08-08T21:39:24.084Z,99393.44
2023-08-08T21:44:27.401Z,99394.16
2023-08-08T21:49:30.251Z,99390.59
2023-08-08T21:54:33.392Z,99389.66
2023-08-08T21:59:39.464Z,99409.31
2023-08-08T22:04:43.097Z,99403.22
2023-08-08T22:09:46.389Z,99402.19
2023-08-08T22:14:49.530Z,99407.41
2023-08-08T22:19:52.281Z,99393.81
2023-08-08T22:24:55.059Z,99393.13
2023-08-08T22:29:57.806Z,99396.75
2023-08-08T22:35:00.566Z,99395.38
2023-08-08T22:40:04.836Z,99397.16
2023-08-08T22:45:08.722Z,99390.25
2023-08-08T22:50:11.530Z,99398.03
2023-08-08T22:55:14.543Z,99395.56
2023-08-08T23:00:17.374Z,99394.88
2023-08-08T23:05:20.352Z,99406.19
2023-08-08T23:10:23.461Z,99380.69
2023-08-08T23:15:26.995Z,99403.78
2023-08-08T23:20:30.460Z,99406.31
2023-08-08T23:25:34.810Z,99416.53
2023-08-08T23:30:37.494Z,99425.88
2023-08-08T23:35:40.584Z,99426.63
2023-08-08T23:40:43.367Z,99427.41
2023-08-08T23:45:46.160Z,99433.28
2023-08-08T23:50:49.183Z,99427.16
2023-08-08T23:55:52.081Z,99424.44
